createdAt,value
2022-12-09T00:00:56.576Z,99.8
2022-12-09T00:02:12.883Z,99.7
2022-12-09T00:03:29.166Z,99.7
2022-12-09T00:04:45.474Z,99.8
2022-12-09T00:06:01.762Z,99.9
2022-12-09T00:07:18.049Z,100
2022-12-09T00:08:34.352Z,100
2022-12-09T00:09:50.656Z,99.7
2022-12-09T00:11:05.952Z,99.5
2022-12-09T00:12:22.258Z,99.4
2022-12-09T00:13:38.553Z,99.4
2022-12-09T00:14:54.836Z,99.3
2022-12-09T00:16:11.136Z,99.4
2022-12-09T00:17:27.429Z,99.2
2022-12-09T00:18:43.722Z,99.2
2022-12-09T00:20:00.028Z,99.3
2022-12-09T00:21:16.314Z,99.2
2022-12-09T00:22:32.616Z,99.1
2022-12-09T00:23:48.919Z,99.1
2022-12-09T00:25:05.214Z,99
2022-12-09T00:26:21.494Z,98.8
2022-12-09T00:27:36.813Z,98.8
2022-12-09T00:28:53.102Z,99
2022-12-09T00:30:09.393Z,99
2022-12-09T00:31:25.692Z,99.2
2022-12-09T00:33:58.285Z,99.4
2022-12-09T00:35:14.589Z,99.4
2022-12-09T00:36:30.871Z,99.3
2022-12-09T00:37:47.159Z,99.4
2022-12-09T00:39:03.466Z,99.6
2022-12-09T00:40:19.750Z,99.3
2022-12-09T00:41:36.045Z,99.3
2022-12-09T00:42:52.356Z,99.2
2022-12-09T00:44:07.662Z,99.2
2022-12-09T00:46:40.239Z,99.4
2022-12-09T00:49:12.837Z,99.8
2022-12-09T00:51:44.458Z,99.9
2022-12-09T00:52:59.760Z,100
2022-12-09T00:54:15.067Z,100
2022-12-09T00:55:31.365Z,100
2022-12-09T00:56:47.668Z,100
2022-12-09T00:58:03.969Z,99.9
2022-12-09T00:59:20.257Z,99.8
2022-12-09T01:00:36.551Z,99.7
2022-12-09T01:01:52.854Z,99.6
2022-12-09T01:04:25.430Z,99.6
2022-12-09T01:05:41.738Z,99.5
2022-12-09T01:06:58.022Z,99.5
2022-12-09T01:08:14.318Z,99.5
2022-12-09T01:09:30.616Z,99.5
2022-12-09T01:12:02.220Z,99.8
2022-12-09T01:13:17.528Z,100
2022-12-09T01:14:32.843Z,100
2022-12-09T01:15:49.153Z,100
2022-12-09T01:17:05.432Z,100
2022-12-09T01:19:38.036Z,100
2022-12-09T01:20:54.329Z,100
2022-12-09T01:22:10.617Z,100
2022-12-09T01:23:26.917Z,100
2022-12-09T01:24:43.199Z,99.9
2022-12-09T01:25:59.501Z,99.8
2022-12-09T01:27:15.789Z,99.7
2022-12-09T01:29:48.386Z,99.6
2022-12-09T01:31:03.709Z,99.7
2022-12-09T01:32:19.995Z,100
2022-12-09T01:33:36.294Z,100
2022-12-09T01:34:52.588Z,100
2022-12-09T01:37:25.173Z,100
2022-12-09T01:38:41.471Z,100
2022-12-09T01:39:57.753Z,100
2022-12-09T01:42:30.347Z,100
2022-12-09T01:43:46.640Z,100
2022-12-09T01:45:02.946Z,100
2022-12-09T01:46:19.247Z,100
2022-12-09T01:47:34.540Z,100
2022-12-09T01:48:50.844Z,100
2022-12-09T01:50:07.137Z,99.7
2022-12-09T01:51:23.441Z,99.7
2022-12-09T01:52:39.723Z,99.6
2022-12-09T01:53:56.024Z,99.6
2022-12-09T01:55:12.323Z,99.6
2022-12-09T01:56:28.623Z,99.7
2022-12-09T01:57:44.898Z,99.8
2022-12-09T01:59:01.213Z,99.9
2022-12-09T02:00:17.506Z,99.9
2022-12-09T02:01:33.792Z,100
2022-12-09T02:02:50.088Z,100
2022-12-09T02:04:05.399Z,100
2022-12-09T02:05:20.714Z,100
2022-12-09T02:06:37.007Z,100
2022-12-09T02:07:53.296Z,100
2022-12-09T02:09:09.611Z,100
2022-12-09T02:10:25.898Z,100
2022-12-09T02:11:42.188Z,100
2022-12-09T02:12:58.481Z,100
2022-12-09T02:14:14.772Z,100
2022-12-09T02:15:31.065Z,100
2022-12-09T02:16:47.376Z,100
2022-12-09T02:18:02.680Z,100
2022-12-09T02:19:17.997Z,100
2022-12-09T02:20:34.291Z,100
2022-12-09T02:21:50.577Z,100
2022-12-09T02:23:06.887Z,100
2022-12-09T02:24:23.167Z,100
2022-12-09T02:25:39.470Z,100
2022-12-09T02:28:12.057Z,100
2022-12-09T02:29:28.359Z,100
2022-12-09T02:30:44.659Z,100
2022-12-09T02:32:00.948Z,100
2022-12-09T02:33:17.235Z,100
2022-12-09T02:34:33.531Z,100
2022-12-09T02:35:48.840Z,100
2022-12-09T02:37:05.136Z,100
2022-12-09T02:38:21.442Z,100
2022-12-09T02:39:37.721Z,100
2022-12-09T02:40:54.035Z,100
2022-12-09T02:42:10.318Z,100
2022-12-09T02:43:26.617Z,100
2022-12-09T02:44:42.917Z,100
2022-12-09T02:45:59.209Z,100
2022-12-09T02:47:15.502Z,100
2022-12-09T02:48:31.803Z,100
2022-12-09T02:49:48.094Z,100
2022-12-09T02:51:04.381Z,100
2022-12-09T02:52:19.699Z,100
2022-12-09T02:53:35.993Z,100
2022-12-09T02:54:52.293Z,100
2022-12-09T02:56:08.589Z,100
2022-12-09T02:57:24.874Z,100
2022-12-09T02:58:41.161Z,100
2022-12-09T02:59:57.464Z,100
2022-12-09T03:01:13.766Z,100
2022-12-09T03:02:30.045Z,100
2022-12-09T03:03:46.356Z,100
2022-12-09T03:06:18.942Z,100
2022-12-09T03:07:35.233Z,100
2022-12-09T03:08:50.546Z,100
2022-12-09T03:10:06.840Z,100
2022-12-09T03:11:23.142Z,100
2022-12-09T03:12:39.433Z,100
2022-12-09T03:13:55.724Z,100
2022-12-09T03:15:12.031Z,100
2022-12-09T03:16:28.321Z,100
2022-12-09T03:17:44.618Z,100
2022-12-09T03:19:00.908Z,100
2022-12-09T03:20:17.196Z,100
2022-12-09T03:22:49.788Z,100
2022-12-09T03:24:05.097Z,100
2022-12-09T03:25:21.392Z,100
2022-12-09T03:26:37.696Z,100
2022-12-09T03:27:53.993Z,100
2022-12-09T03:29:10.293Z,100
2022-12-09T03:30:26.582Z,100
2022-12-09T03:31:42.886Z,100
2022-12-09T03:32:59.175Z,100
2022-12-09T03:34:15.469Z,100
2022-12-09T03:35:31.767Z,100
2022-12-09T03:36:48.046Z,100
2022-12-09T03:38:04.351Z,100
2022-12-09T03:39:20.650Z,100
2022-12-09T03:40:35.951Z,100
2022-12-09T03:41:52.251Z,100
2022-12-09T03:43:08.547Z,100
2022-12-09T03:44:24.847Z,100
2022-12-09T03:45:41.133Z,100
2022-12-09T03:46:57.438Z,100
2022-12-09T03:48:13.722Z,100
2022-12-09T03:49:30.031Z,100
2022-12-09T03:50:46.320Z,100
2022-12-09T03:52:02.613Z,100
2022-12-09T03:53:18.909Z,100
2022-12-09T03:54:35.202Z,100
2022-12-09T03:55:51.497Z,100
2022-12-09T03:57:06.807Z,100
2022-12-09T03:58:23.096Z,100
2022-12-09T03:59:39.403Z,100
2022-12-09T04:00:55.692Z,100
2022-12-09T04:02:11.994Z,100
2022-12-09T04:03:28.288Z,100
2022-12-09T04:04:44.577Z,100
2022-12-09T04:06:00.862Z,100
2022-12-09T04:07:17.169Z,100
2022-12-09T04:08:33.466Z,100
2022-12-09T04:09:49.760Z,100
2022-12-09T04:11:06.056Z,100
2022-12-09T04:12:22.351Z,100
2022-12-09T04:13:37.659Z,100
2022-12-09T04:14:53.959Z,100
2022-12-09T04:16:10.253Z,100
2022-12-09T04:17:26.538Z,100
2022-12-09T04:18:42.839Z,100
2022-12-09T04:19:59.134Z,100
2022-12-09T04:21:15.424Z,100
2022-12-09T04:22:31.722Z,100
2022-12-09T04:23:48.018Z,100
2022-12-09T04:25:04.312Z,100
2022-12-09T04:26:20.608Z,100
2022-12-09T04:27:36.906Z,100
2022-12-09T04:28:53.205Z,100
2022-12-09T04:30:08.508Z,99.8
2022-12-09T04:31:24.813Z,99.8
2022-12-09T04:32:41.000Z,99.7
2022-12-09T04:33:57.385Z,99.9
2022-12-09T04:35:13.678Z,99.8
2022-12-09T04:36:29.976Z,99.8
2022-12-09T04:37:46.281Z,100
2022-12-09T04:39:02.567Z,100
2022-12-09T04:40:18.867Z,100
2022-12-09T04:41:35.170Z,100
2022-12-09T04:42:51.454Z,100
2022-12-09T04:44:07.746Z,100
2022-12-09T04:45:24.037Z,100
2022-12-09T04:46:39.360Z,100
2022-12-09T04:47:55.660Z,100
2022-12-09T04:49:11.938Z,100
2022-12-09T04:50:28.249Z,100
2022-12-09T04:51:44.535Z,100
2022-12-09T04:53:00.834Z,100
2022-12-09T04:54:17.132Z,100
2022-12-09T04:55:33.424Z,100
2022-12-09T04:56:49.714Z,100
2022-12-09T04:58:06.011Z,100
2022-12-09T04:59:22.306Z,100
2022-12-09T05:00:38.611Z,100
2022-12-09T05:01:54.901Z,100
2022-12-09T05:03:10.217Z,100
2022-12-09T05:04:26.513Z,100
2022-12-09T05:05:42.801Z,100
2022-12-09T05:08:15.397Z,100
2022-12-09T05:09:31.688Z,100
2022-12-09T05:10:47.984Z,100
2022-12-09T05:12:04.267Z,100
2022-12-09T05:13:20.574Z,100
2022-12-09T05:14:36.858Z,100
2022-12-09T05:15:53.153Z,100
2022-12-09T05:17:09.452Z,100
2022-12-09T05:18:25.749Z,100
2022-12-09T05:19:41.067Z,100
2022-12-09T05:20:57.347Z,100
2022-12-09T05:22:13.645Z,100
2022-12-09T05:23:29.949Z,100
2022-12-09T05:24:46.247Z,100
2022-12-09T05:26:02.526Z,100
2022-12-09T05:27:18.823Z,100
2022-12-09T05:28:35.116Z,100
2022-12-09T05:29:51.428Z,100
2022-12-09T05:31:07.710Z,100
2022-12-09T05:32:24.001Z,100
2022-12-09T05:33:40.307Z,100
2022-12-09T05:34:56.600Z,100
2022-12-09T05:36:11.899Z,100
2022-12-09T05:38:44.507Z,100
2022-12-09T05:40:00.799Z,100
2022-12-09T05:41:17.088Z,100
2022-12-09T05:42:33.386Z,100
2022-12-09T05:43:49.672Z,100
2022-12-09T05:45:05.975Z,100
2022-12-09T05:46:22.263Z,100
2022-12-09T05:47:38.563Z,100
2022-12-09T05:48:54.867Z,100
2022-12-09T05:50:11.159Z,100
2022-12-09T05:51:27.445Z,100
2022-12-09T05:52:42.751Z,100
2022-12-09T05:53:59.063Z,100
2022-12-09T05:55:15.353Z,100
2022-12-09T05:56:31.655Z,100
2022-12-09T05:57:47.948Z,100
2022-12-09T05:59:04.241Z,100
2022-12-09T06:01:36.820Z,100
2022-12-09T06:02:53.115Z,100
2022-12-09T06:04:09.412Z,100
2022-12-09T06:05:25.719Z,100
2022-12-09T06:06:42.008Z,100
2022-12-09T06:07:58.294Z,100
2022-12-09T06:09:13.605Z,100
2022-12-09T06:10:29.899Z,100
2022-12-09T06:11:46.210Z,100
2022-12-09T06:13:02.488Z,100
2022-12-09T06:14:18.794Z,100
2022-12-09T06:15:35.083Z,100
2022-12-09T06:16:51.371Z,100
2022-12-09T06:18:07.680Z,100
2022-12-09T06:19:23.962Z,100
2022-12-09T06:20:40.255Z,100
2022-12-09T06:21:56.572Z,100
2022-12-09T06:23:12.847Z,100
2022-12-09T06:24:29.155Z,100
2022-12-09T06:25:44.401Z,100
2022-12-09T06:27:00.707Z,100
2022-12-09T06:28:16.959Z,100
2022-12-09T06:29:33.194Z,100
2022-12-09T06:30:49.441Z,100
2022-12-09T06:32:05.671Z,100
2022-12-09T06:33:21.911Z,100
2022-12-09T06:34:38.169Z,100
2022-12-09T06:35:54.413Z,100
2022-12-09T06:37:10.650Z,100
2022-12-09T06:38:26.906Z,100
2022-12-09T06:39:43.153Z,100
2022-12-09T06:40:59.388Z,100
2022-12-09T06:42:14.649Z,100
2022-12-09T06:43:30.897Z,100
2022-12-09T06:44:47.120Z,100
2022-12-09T06:46:03.363Z,100
2022-12-09T06:47:19.612Z,100
2022-12-09T06:48:35.857Z,100
2022-12-09T06:49:52.101Z,100
2022-12-09T06:51:08.335Z,100
2022-12-09T06:52:24.581Z,100
2022-12-09T06:53:40.825Z,100
2022-12-09T06:54:57.049Z,100
2022-12-09T06:56:13.293Z,100
2022-12-09T06:57:29.532Z,100
2022-12-09T06:58:44.794Z,100
2022-12-09T07:00:01.035Z,100
2022-12-09T07:01:17.274Z,100
2022-12-09T07:02:33.526Z,100
2022-12-09T07:03:49.752Z,100
2022-12-09T07:05:05.989Z,100
2022-12-09T07:06:22.236Z,100
2022-12-09T07:07:38.484Z,100
2022-12-09T07:10:10.955Z,100
2022-12-09T07:11:27.206Z,100
2022-12-09T07:12:43.436Z,100
2022-12-09T07:15:15.927Z,100
2022-12-09T07:17:47.431Z,100
2022-12-09T07:19:02.691Z,100
2022-12-09T07:20:17.952Z,100
2022-12-09T07:21:34.194Z,100
2022-12-09T07:25:22.900Z,100
2022-12-09T07:26:39.145Z,100
2022-12-09T07:27:55.390Z,100
2022-12-09T07:29:11.635Z,100
2022-12-09T07:30:27.865Z,100
2022-12-09T07:33:00.349Z,100
2022-12-09T07:34:16.595Z,100
2022-12-09T07:35:32.836Z,100
2022-12-09T07:36:48.092Z,100
2022-12-09T07:38:03.363Z,100
2022-12-09T07:39:18.609Z,100
2022-12-09T07:40:34.866Z,100
2022-12-09T07:41:51.103Z,100
2022-12-09T07:43:07.344Z,100
2022-12-09T07:44:23.584Z,100
2022-12-09T07:45:39.832Z,100
2022-12-09T07:46:56.068Z,100
2022-12-09T07:48:12.314Z,99.9
2022-12-09T07:49:28.547Z,99.9
2022-12-09T07:50:43.799Z,100
2022-12-09T07:51:59.069Z,100
2022-12-09T07:53:15.299Z,100
2022-12-09T07:54:31.557Z,100
2022-12-09T07:55:47.796Z,99.9
2022-12-09T07:57:04.029Z,99.9
2022-12-09T07:58:20.279Z,100
2022-12-09T07:59:36.521Z,100
2022-12-09T08:00:52.744Z,100
2022-12-09T08:02:09.003Z,100
2022-12-09T08:03:25.241Z,99.9
2022-12-09T08:04:40.502Z,99.9
2022-12-09T08:05:56.742Z,99.7
2022-12-09T08:07:11.992Z,99.8
2022-12-09T08:08:28.240Z,99.8
2022-12-09T08:09:44.483Z,99.7
2022-12-09T08:11:00.726Z,99.6
2022-12-09T08:13:33.199Z,99.5
2022-12-09T08:16:05.679Z,99.5
2022-12-09T08:17:21.916Z,99.5
2022-12-09T08:18:38.170Z,99.5
2022-12-09T08:19:54.398Z,99.6
2022-12-09T08:21:09.667Z,99.8
2022-12-09T08:22:24.929Z,99.8
2022-12-09T08:23:41.164Z,99.8
2022-12-09T08:24:57.405Z,99.9
2022-12-09T08:26:13.637Z,100
2022-12-09T08:27:29.882Z,99.8
2022-12-09T08:28:46.125Z,99.7
2022-12-09T08:30:02.363Z,99.7
2022-12-09T08:31:18.609Z,99.8
2022-12-09T08:33:51.086Z,99.7
2022-12-09T08:35:07.325Z,99.8
2022-12-09T08:36:23.577Z,100
2022-12-09T08:37:39.808Z,100
2022-12-09T08:38:55.077Z,100
2022-12-09T08:41:27.557Z,99.8
2022-12-09T08:42:42.824Z,99.9
2022-12-09T08:43:58.074Z,99.9
2022-12-09T08:45:14.315Z,99.9
2022-12-09T08:46:30.548Z,99.8
2022-12-09T08:49:03.036Z,100
2022-12-09T08:50:19.280Z,99.9
2022-12-09T08:51:35.524Z,100
2022-12-09T08:52:51.766Z,100
2022-12-09T08:54:07.992Z,100
2022-12-09T08:56:40.491Z,100
2022-12-09T08:57:56.715Z,100
2022-12-09T08:59:12.954Z,100
2022-12-09T09:00:28.221Z,100
2022-12-09T09:01:44.457Z,100
2022-12-09T09:03:00.707Z,100
2022-12-09T09:04:16.953Z,100
2022-12-09T09:05:33.192Z,100
2022-12-09T09:06:49.430Z,100
2022-12-09T09:08:05.671Z,100
2022-12-09T09:09:21.913Z,100
2022-12-09T09:11:54.392Z,100
2022-12-09T09:13:10.632Z,100
2022-12-09T09:15:43.118Z,100
2022-12-09T09:16:59.356Z,100
2022-12-09T09:19:31.955Z,100
2022-12-09T09:20:48.187Z,100
2022-12-09T09:22:04.438Z,100
2022-12-09T09:23:20.677Z,100
2022-12-09T09:24:36.913Z,100
2022-12-09T09:27:09.411Z,100
2022-12-09T09:28:25.641Z,100
2022-12-09T09:29:41.886Z,100
2022-12-09T09:30:58.129Z,100
2022-12-09T09:32:14.364Z,100
2022-12-09T09:33:30.611Z,100
2022-12-09T09:34:46.839Z,100
2022-12-09T09:36:02.102Z,100
2022-12-09T09:37:18.352Z,100
2022-12-09T09:38:34.595Z,100
2022-12-09T09:39:50.818Z,100
2022-12-09T09:41:07.068Z,100
2022-12-09T09:42:23.310Z,100
2022-12-09T09:43:39.539Z,100
2022-12-09T09:44:55.790Z,100
2022-12-09T09:46:11.045Z,100
2022-12-09T09:47:26.306Z,100
2022-12-09T09:48:42.542Z,100
2022-12-09T09:49:58.801Z,100
2022-12-09T09:51:15.039Z,100
2022-12-09T09:52:31.279Z,100
2022-12-09T09:53:47.521Z,100
2022-12-09T09:55:03.759Z,100
2022-12-09T09:57:36.227Z,100
2022-12-09T09:58:52.485Z,100
2022-12-09T10:00:08.720Z,100
2022-12-09T10:01:24.968Z,100
2022-12-09T10:02:41.197Z,100
2022-12-09T10:05:12.694Z,100
2022-12-09T10:07:44.202Z,100
2022-12-09T10:08:59.457Z,100
2022-12-09T10:10:14.728Z,100
2022-12-09T10:11:30.952Z,100
2022-12-09T10:12:47.206Z,100
2022-12-09T10:14:03.434Z,100
2022-12-09T10:15:19.691Z,100
2022-12-09T10:16:35.922Z,100
2022-12-09T10:17:52.162Z,100
2022-12-09T10:20:24.645Z,100
2022-12-09T10:22:57.131Z,100
2022-12-09T10:24:13.378Z,100
2022-12-09T10:25:29.613Z,100
2022-12-09T10:28:01.106Z,100
2022-12-09T10:29:17.352Z,100
2022-12-09T10:30:33.589Z,100
2022-12-09T10:31:49.834Z,100
2022-12-09T10:33:06.062Z,100
2022-12-09T10:35:38.551Z,100
2022-12-09T10:36:54.804Z,100
2022-12-09T10:39:27.267Z,100
2022-12-09T10:40:43.525Z,100
2022-12-09T10:41:59.754Z,100
2022-12-09T10:43:15.015Z,100
2022-12-09T10:44:31.263Z,100
2022-12-09T10:45:47.498Z,100
2022-12-09T10:47:03.743Z,100
2022-12-09T10:48:19.977Z,100
2022-12-09T10:49:36.223Z,100
2022-12-09T10:50:52.458Z,100
2022-12-09T10:52:08.707Z,100
2022-12-09T10:53:24.942Z,100
2022-12-09T10:54:41.172Z,100
2022-12-09T10:55:57.431Z,100
2022-12-09T10:57:13.671Z,100
2022-12-09T10:58:29.906Z,100
2022-12-09T10:59:45.160Z,100
2022-12-09T11:01:01.392Z,100
2022-12-09T11:02:17.638Z,100
2022-12-09T11:03:32.914Z,100
2022-12-09T11:04:48.159Z,100
2022-12-09T11:06:04.397Z,100
2022-12-09T11:08:36.873Z,100
2022-12-09T11:09:53.127Z,100
2022-12-09T11:11:09.369Z,100
2022-12-09T11:12:25.599Z,100
2022-12-09T11:13:41.845Z,100
2022-12-09T11:14:58.088Z,100
2022-12-09T11:16:14.325Z,100
2022-12-09T11:17:30.565Z,100
2022-12-09T11:18:46.800Z,100
2022-12-09T11:20:03.054Z,100
2022-12-09T11:22:34.551Z,100
2022-12-09T11:23:49.803Z,100
2022-12-09T11:25:05.072Z,100
2022-12-09T11:26:21.317Z,100
2022-12-09T11:27:37.548Z,100
2022-12-09T11:28:53.794Z,100
2022-12-09T11:30:10.032Z,100
2022-12-09T11:31:26.277Z,100
2022-12-09T11:32:42.503Z,100
2022-12-09T11:33:58.748Z,100
2022-12-09T11:35:14.992Z,100
2022-12-09T11:36:31.241Z,100
2022-12-09T11:37:46.504Z,100
2022-12-09T11:39:01.765Z,100
2022-12-09T11:40:17.987Z,100
2022-12-09T11:41:34.228Z,100
2022-12-09T11:42:50.483Z,100
2022-12-09T11:44:06.716Z,100
2022-12-09T11:45:22.955Z,100
2022-12-09T11:46:39.192Z,100
2022-12-09T11:47:55.446Z,100
2022-12-09T11:49:11.675Z,100
2022-12-09T11:50:27.917Z,100
2022-12-09T11:51:43.191Z,100
2022-12-09T11:52:58.439Z,100
2022-12-09T11:54:13.695Z,100
2022-12-09T11:55:29.953Z,100
2022-12-09T11:56:46.185Z,100
2022-12-09T11:58:02.420Z,100
2022-12-09T11:59:18.670Z,100
2022-12-09T12:00:34.917Z,100
2022-12-09T12:01:51.142Z,100
2022-12-09T12:03:07.388Z,100
2022-12-09T12:04:23.627Z,100
2022-12-09T12:06:56.120Z,100
2022-12-09T12:08:12.347Z,100
2022-12-09T12:09:28.594Z,100
2022-12-09T12:10:43.844Z,100
2022-12-09T12:12:00.087Z,100
2022-12-09T12:13:16.326Z,100
2022-12-09T12:14:32.568Z,100
2022-12-09T12:15:48.819Z,100
2022-12-09T12:17:05.048Z,100
2022-12-09T12:18:21.295Z,100
2022-12-09T12:19:37.531Z,100
2022-12-09T12:20:53.777Z,100
2022-12-09T12:22:10.019Z,100
2022-12-09T12:23:26.268Z,100
2022-12-09T12:24:42.498Z,100
2022-12-09T12:25:58.743Z,100
2022-12-09T12:27:13.991Z,100
2022-12-09T12:29:46.481Z,100
2022-12-09T12:31:02.731Z,100
2022-12-09T12:32:18.961Z,100
2022-12-09T12:33:35.209Z,100
2022-12-09T12:34:51.450Z,100
2022-12-09T12:36:07.675Z,100
2022-12-09T12:37:23.926Z,100
2022-12-09T12:38:40.167Z,100
2022-12-09T12:39:56.411Z,100
2022-12-09T12:41:12.655Z,100
2022-12-09T12:42:28.897Z,100
2022-12-09T12:43:44.145Z,100
2022-12-09T12:45:00.392Z,100
2022-12-09T12:46:16.634Z,100
2022-12-09T12:47:32.873Z,100
2022-12-09T12:48:49.107Z,100
2022-12-09T12:50:05.355Z,100
2022-12-09T12:51:21.591Z,100
2022-12-09T12:52:37.834Z,100
2022-12-09T12:53:54.082Z,100
2022-12-09T12:55:10.314Z,100
2022-12-09T12:56:26.546Z,100
2022-12-09T12:57:42.790Z,100
2022-12-09T12:58:59.027Z,100
2022-12-09T13:00:14.302Z,100
2022-12-09T13:01:30.539Z,100
2022-12-09T13:02:46.776Z,100
2022-12-09T13:04:03.020Z,100
2022-12-09T13:05:19.264Z,100
2022-12-09T13:06:35.499Z,100
2022-12-09T13:07:51.752Z,100
2022-12-09T13:09:07.981Z,100
2022-12-09T13:10:24.229Z,100
2022-12-09T13:11:40.460Z,100
2022-12-09T13:12:56.700Z,100
2022-12-09T13:14:12.947Z,100
2022-12-09T13:15:29.192Z,100
2022-12-09T13:16:45.552Z,100
2022-12-09T13:18:01.787Z,100
2022-12-09T13:19:18.019Z,100
2022-12-09T13:20:34.279Z,100
2022-12-09T13:21:50.508Z,100
2022-12-09T13:23:06.757Z,100
2022-12-09T13:24:22.997Z,100
2022-12-09T13:25:39.234Z,100
2022-12-09T13:26:55.472Z,100
2022-12-09T13:28:11.706Z,100
2022-12-09T13:29:27.961Z,100
2022-12-09T13:30:44.200Z,100
2022-12-09T13:32:00.430Z,100
2022-12-09T13:33:15.700Z,100
2022-12-09T13:34:31.933Z,100
2022-12-09T13:35:48.176Z,100
2022-12-09T13:37:04.412Z,100
2022-12-09T13:38:20.666Z,100
2022-12-09T13:39:36.907Z,100
2022-12-09T13:40:53.148Z,100
2022-12-09T13:42:09.373Z,100
2022-12-09T13:43:25.625Z,100
2022-12-09T13:44:41.854Z,100
2022-12-09T13:45:58.107Z,100
2022-12-09T13:47:14.346Z,100
2022-12-09T13:48:30.578Z,100
2022-12-09T13:49:45.842Z,100
2022-12-09T13:51:02.093Z,100
2022-12-09T13:52:18.330Z,100
2022-12-09T13:53:34.564Z,100
2022-12-09T13:54:50.816Z,100
2022-12-09T13:56:07.051Z,100
2022-12-09T13:57:23.284Z,100
2022-12-09T13:58:39.542Z,100
2022-12-09T14:01:12.012Z,100
2022-12-09T14:02:28.249Z,100
2022-12-09T14:03:44.486Z,100
2022-12-09T14:05:00.733Z,100
2022-12-09T14:06:15.991Z,100
2022-12-09T14:07:32.242Z,100
2022-12-09T14:08:48.468Z,100
2022-12-09T14:10:04.724Z,100
2022-12-09T14:11:20.947Z,100
2022-12-09T14:12:37.190Z,100
2022-12-09T14:13:53.430Z,100
2022-12-09T14:15:09.687Z,100
2022-12-09T14:16:25.930Z,100
2022-12-09T14:17:42.160Z,100
2022-12-09T14:18:58.408Z,100
2022-12-09T14:20:14.651Z,100
2022-12-09T14:21:30.884Z,100
2022-12-09T14:22:46.141Z,100
2022-12-09T14:24:02.375Z,100
2022-12-09T14:25:18.617Z,100
2022-12-09T14:26:34.862Z,100
2022-12-09T14:27:51.106Z,100
2022-12-09T14:29:07.348Z,100
2022-12-09T14:30:23.583Z,100
2022-12-09T14:31:39.825Z,100
2022-12-09T14:32:56.076Z,100
2022-12-09T14:34:12.301Z,100
2022-12-09T14:35:28.545Z,100
2022-12-09T14:36:44.790Z,100
2022-12-09T14:38:01.043Z,100
2022-12-09T14:39:16.290Z,100
2022-12-09T14:40:32.532Z,100
2022-12-09T14:41:48.772Z,100
2022-12-09T14:44:21.263Z,100
2022-12-09T14:45:37.504Z,100
2022-12-09T14:46:53.727Z,100
2022-12-09T14:48:09.978Z,100
2022-12-09T14:49:26.209Z,100
2022-12-09T14:50:42.467Z,100
2022-12-09T14:51:58.708Z,100
2022-12-09T14:53:14.948Z,100
2022-12-09T14:54:31.192Z,100
2022-12-09T14:55:46.433Z,100
2022-12-09T14:57:02.687Z,100
2022-12-09T14:58:18.920Z,100
2022-12-09T14:59:35.160Z,100
2022-12-09T15:00:51.000Z,100
2022-12-09T15:02:07.637Z,100
2022-12-09T15:03:23.891Z,100
2022-12-09T15:04:40.123Z,100
2022-12-09T15:05:56.359Z,100
2022-12-09T15:07:12.613Z,100
2022-12-09T15:09:45.096Z,100
2022-12-09T15:11:01.324Z,100
2022-12-09T15:12:16.581Z,100
2022-12-09T15:13:32.824Z,100
2022-12-09T15:14:49.074Z,100
2022-12-09T15:16:05.307Z,100
2022-12-09T15:17:21.554Z,100
2022-12-09T15:18:37.796Z,100
2022-12-09T15:19:54.043Z,100
2022-12-09T15:21:10.277Z,100
2022-12-09T15:22:26.523Z,100
2022-12-09T15:23:42.759Z,100
2022-12-09T15:24:58.999Z,100
2022-12-09T15:26:15.236Z,100
2022-12-09T15:27:31.482Z,100
2022-12-09T15:28:46.725Z,100
2022-12-09T15:30:02.000Z,100
2022-12-09T15:31:19.210Z,100
2022-12-09T15:32:35.454Z,100
2022-12-09T15:33:51.697Z,100
2022-12-09T15:35:07.945Z,100
2022-12-09T15:36:24.187Z,100
2022-12-09T15:37:40.423Z,100
2022-12-09T15:38:56.708Z,100
2022-12-09T15:40:12.954Z,100
2022-12-09T15:41:29.190Z,100
2022-12-09T15:42:45.435Z,100
2022-12-09T15:44:01.743Z,100
2022-12-09T15:45:17.042Z,100
2022-12-09T15:46:33.342Z,100
2022-12-09T15:47:49.644Z,100
2022-12-09T15:49:05.928Z,100
2022-12-09T15:50:22.229Z,100
2022-12-09T15:51:38.525Z,100
2022-12-09T15:54:11.096Z,100
2022-12-09T15:55:27.391Z,100
2022-12-09T15:56:43.685Z,100
2022-12-09T15:57:59.975Z,100
2022-12-09T15:59:16.270Z,100
2022-12-09T16:00:32.568Z,100
2022-12-09T16:01:47.881Z,100
2022-12-09T16:03:04.180Z,100
2022-12-09T16:05:36.777Z,100
2022-12-09T16:06:53.070Z,100
2022-12-09T16:08:09.357Z,100
2022-12-09T16:09:24.669Z,100
2022-12-09T16:10:40.975Z,100
2022-12-09T16:11:57.265Z,100
2022-12-09T16:13:13.567Z,100
2022-12-09T16:14:29.869Z,100
2022-12-09T16:15:46.160Z,100
2022-12-09T16:17:02.450Z,100
2022-12-09T16:18:18.742Z,100
2022-12-09T16:19:35.046Z,100
2022-12-09T16:20:51.328Z,100
2022-12-09T16:22:07.633Z,100
2022-12-09T16:23:23.921Z,100
2022-12-09T16:24:40.229Z,100
2022-12-09T16:25:55.519Z,100
2022-12-09T16:27:11.827Z,100
2022-12-09T16:28:28.115Z,100
2022-12-09T16:29:44.423Z,100
2022-12-09T16:31:00.707Z,100
2022-12-09T16:32:16.996Z,100
2022-12-09T16:33:33.288Z,100
2022-12-09T16:34:49.595Z,100
2022-12-09T16:36:05.896Z,100
2022-12-09T16:37:22.189Z,100
2022-12-09T16:38:38.474Z,100
2022-12-09T16:39:54.777Z,100
2022-12-09T16:41:11.066Z,100
2022-12-09T16:42:26.378Z,100
2022-12-09T16:43:42.663Z,100
2022-12-09T16:44:58.958Z,100
2022-12-09T16:46:15.269Z,100
2022-12-09T16:47:31.551Z,100
2022-12-09T16:48:47.861Z,100
2022-12-09T16:50:04.152Z,100
2022-12-09T16:51:20.449Z,100
2022-12-09T16:52:36.728Z,100
2022-12-09T16:53:53.033Z,100
2022-12-09T16:55:09.332Z,100
2022-12-09T16:56:25.627Z,100
2022-12-09T16:57:41.916Z,100
2022-12-09T16:58:57.236Z,100
2022-12-09T17:00:13.524Z,100
2022-12-09T17:01:29.814Z,100
2022-12-09T17:02:46.112Z,100
2022-12-09T17:04:02.415Z,100
2022-12-09T17:05:18.709Z,100
2022-12-09T17:06:34.994Z,100
2022-12-09T17:09:07.579Z,100
2022-12-09T17:10:23.891Z,100
2022-12-09T17:11:40.179Z,100
2022-12-09T17:12:56.484Z,100
2022-12-09T17:14:12.774Z,100
2022-12-09T17:15:28.081Z,100
2022-12-09T17:16:44.371Z,100
2022-12-09T17:18:00.673Z,100
2022-12-09T17:19:16.962Z,100
2022-12-09T17:20:33.266Z,100
2022-12-09T17:21:49.552Z,100
2022-12-09T17:23:05.846Z,100
2022-12-09T17:24:22.138Z,100
2022-12-09T17:25:38.433Z,100
2022-12-09T17:26:54.723Z,100
2022-12-09T17:28:11.032Z,100
2022-12-09T17:29:27.319Z,100
2022-12-09T17:30:43.617Z,100
2022-12-09T17:31:58.933Z,100
2022-12-09T17:33:15.213Z,100
2022-12-09T17:34:31.521Z,100
2022-12-09T17:35:47.803Z,100
2022-12-09T17:37:04.108Z,100
2022-12-09T17:38:20.401Z,100
2022-12-09T17:39:36.692Z,100
2022-12-09T17:40:53.001Z,100
2022-12-09T17:42:09.289Z,100
2022-12-09T17:43:25.583Z,100
2022-12-09T17:44:41.872Z,100
2022-12-09T17:45:58.173Z,100
2022-12-09T17:47:14.462Z,100
2022-12-09T17:48:30.883Z,100
2022-12-09T17:49:47.176Z,100
2022-12-09T17:51:03.483Z,100
2022-12-09T17:52:19.767Z,100
2022-12-09T17:53:36.062Z,100
2022-12-09T17:54:52.365Z,100
2022-12-09T17:56:08.644Z,100
2022-12-09T17:57:24.956Z,100
2022-12-09T17:58:41.250Z,100
2022-12-09T17:59:57.542Z,100
2022-12-09T18:01:13.837Z,100
2022-12-09T18:02:30.130Z,100
2022-12-09T18:05:02.710Z,100
2022-12-09T18:06:18.022Z,100
2022-12-09T18:07:34.317Z,100
2022-12-09T18:08:50.617Z,100
2022-12-09T18:10:06.917Z,100
2022-12-09T18:12:39.496Z,100
2022-12-09T18:13:55.801Z,100
2022-12-09T18:15:12.089Z,100
2022-12-09T18:16:28.382Z,100
2022-12-09T18:20:17.268Z,100
2022-12-09T18:21:32.589Z,100
2022-12-09T18:22:47.902Z,100
2022-12-09T18:25:20.478Z,100
2022-12-09T18:26:36.772Z,100
2022-12-09T18:27:53.067Z,100
2022-12-09T18:29:09.369Z,100
2022-12-09T18:30:25.673Z,100
2022-12-09T18:31:41.966Z,100
2022-12-09T18:32:58.262Z,100
2022-12-09T18:34:14.558Z,100